Impacts METAR Board INFO
IDs:

KDEN - Denver Intl, CO, US

Updated at: 1105 UTC 11 Dec 2017
Potential Impact None Slight Moderate High
Time10/23Z 11/00Z 11/01Z 11/02Z 11/03Z 11/04Z 11/05Z 11/06Z 11/07Z 11/08Z 11/09Z 11/10Z 11/11Z
VIS10 10 10 10 10 10 10 10 10 10 10 10 10
CIG-- -- -- -- -- -- -- -- -- -- -- -- --
CoverFEWFEWCLRCLRCLRCLRCLRCLRCLRCLRCLRCLRCLR
FltCatVFRVFRVFRVFRVFRVFRVFRVFRVFRVFRVFRVFRVFR
WX--------------------------
WDir2803300200210220230210220220210220220
WSpd4 3 0 6 11 11 9 14 10 8 7 9 13
WGst-- -- -- -- -- -- -- -- -- -- -- -- --
Raw hourly METARs
KDEN 102253Z 28004KT 10SM FEW220 14/M20 A3033 RMK AO2 SLP249 T01391200
KDEN 102353Z 33003KT 10SM FEW220 12/M21 A3033 RMK AO2 SLP254 T01171206 10167 20117 56003
KDEN 110053Z 00000KT 10SM CLR 09/M21 A3033 RMK AO2 SLP261 T00891211
KDEN 110153Z 20006KT 10SM CLR 05/M21 A3032 RMK AO2 SLP262 T00501206
KDEN 110253Z 21011KT 10SM CLR 04/M21 A3032 RMK AO2 SLP265 T00391206 55003
KDEN 110353Z 22011KT 10SM CLR 04/M21 A3031 RMK AO2 SLP253 T00441206
KDEN 110453Z 23009KT 10SM CLR 04/M21 A3032 RMK AO2 SLP249 T00391206
KDEN 110553Z 21014KT 10SM CLR 06/M21 A3031 RMK AO2 SLP237 T00561206 10117 20028 58003
KDEN 110653Z 22010KT 10SM CLR 04/M20 A3031 RMK AO2 SLP236 T00441200 401670011
KDEN 110753Z 22008KT 10SM CLR 03/M20 A3032 RMK AO2 SLP238 T00331200
KDEN 110853Z 21007KT 10SM CLR 02/M20 A3033 RMK AO2 SLP244 T00171200 53006
KDEN 110953Z 22009KT 10SM CLR 01/M19 A3032 RMK AO2 SLP245 T00111194
KDEN 111053Z 22013KT 10SM CLR 03/M19 A3031 RMK AO2 SLP240 T00281194